createdAt,value
2022-12-20T00:02:11.718Z,32.07
2022-12-20T00:04:39.883Z,34.77
2022-12-20T00:07:07.785Z,29.83
2022-12-20T00:09:35.705Z,30.73
2022-12-20T00:12:05.330Z,28.93
2022-12-20T00:14:33.253Z,31.17
2022-12-20T00:17:01.236Z,29.27
2022-12-20T00:19:29.206Z,32.23
2022-12-20T00:21:57.063Z,35.10
2022-12-20T00:24:26.515Z,30.63
2022-12-20T00:26:54.584Z,28.80
2022-12-20T00:29:23.917Z,32.37
2022-12-20T00:31:51.908Z,31.20
2022-12-20T00:34:19.911Z,30.80
2022-12-20T00:36:48.368Z,31.00
2022-12-20T00:39:16.330Z,29.43
2022-12-20T00:41:44.648Z,30.70
2022-12-20T00:44:12.800Z,29.90
2022-12-20T00:46:42.530Z,28.87
2022-12-20T00:49:10.561Z,30.80
2022-12-20T00:51:41.224Z,34.47
2022-12-20T00:54:11.566Z,35.43
2022-12-20T00:56:39.544Z,38.60
2022-12-20T00:59:07.471Z,39.30
2022-12-20T01:01:35.782Z,35.17
2022-12-20T01:04:05.666Z,33.03
2022-12-20T01:06:33.917Z,30.77
2022-12-20T01:09:02.255Z,35.37
2022-12-20T01:11:32.080Z,36.93
2022-12-20T01:14:03.394Z,35.30
2022-12-20T01:16:33.367Z,32.73
2022-12-20T01:19:02.012Z,38.33
2022-12-20T01:21:31.734Z,37.60
2022-12-20T01:23:59.637Z,33.97
2022-12-20T01:26:30.275Z,35.63
2022-12-20T01:28:59.564Z,35.30
2022-12-20T01:31:28.796Z,32.77
2022-12-20T01:33:56.927Z,32.73
2022-12-20T01:36:26.706Z,29.53
2022-12-20T01:38:59.402Z,30.47
2022-12-20T01:41:29.536Z,31.30
2022-12-20T01:44:00.521Z,31.17
2022-12-20T01:46:30.462Z,29.33
2022-12-20T01:49:03.846Z,31.00
2022-12-20T01:51:34.735Z,32.73
2022-12-20T01:54:09.112Z,29.93
2022-12-20T01:56:38.956Z,31.60
2022-12-20T01:59:07.745Z,30.30
2022-12-20T02:01:36.272Z,31.33
2022-12-20T02:04:04.509Z,30.63
2022-12-20T02:06:32.466Z,32.40
2022-12-20T02:09:03.669Z,32.23
2022-12-20T02:11:52.215Z,30.60
2022-12-20T02:14:33.183Z,29.47
2022-12-20T02:17:11.582Z,29.60
2022-12-20T02:20:24.491Z,31.57
2022-12-20T02:23:11.892Z,30.83
2022-12-20T02:25:52.016Z,30.67
2022-12-20T02:28:39.951Z,35.40
2022-12-20T02:31:14.104Z,31.10
2022-12-20T02:33:44.167Z,28.93
2022-12-20T02:36:12.206Z,30.53
2022-12-20T02:38:40.131Z,29.97
2022-12-20T02:41:13.031Z,31.17
2022-12-20T02:44:03.745Z,29.53
2022-12-20T02:46:37.173Z,30.60
2022-12-20T02:49:16.933Z,30.17
2022-12-20T02:51:48.375Z,32.10
2022-12-20T02:54:17.592Z,31.07
2022-12-20T02:56:51.465Z,31.87
2022-12-20T02:59:23.350Z,30.83
2022-12-20T03:01:54.478Z,31.33
2022-12-20T03:04:26.668Z,32.90
2022-12-20T03:07:00.759Z,31.80
2022-12-20T03:09:29.453Z,34.20
2022-12-20T03:11:57.432Z,30.87
2022-12-20T03:14:26.322Z,33.47
2022-12-20T03:16:55.662Z,32.50
2022-12-20T03:19:23.677Z,32.03
2022-12-20T03:21:51.964Z,33.53
2022-12-20T03:24:20.366Z,35.07
2022-12-20T03:26:48.719Z,33.37
2022-12-20T03:29:16.645Z,33.13
2022-12-20T03:31:44.719Z,31.40
2022-12-20T03:34:14.095Z,29.87
2022-12-20T03:36:42.010Z,30.53
2022-12-20T03:39:09.967Z,30.47
2022-12-20T03:41:37.900Z,31.63
2022-12-20T03:44:06.133Z,31.13
2022-12-20T03:46:34.217Z,33.23
2022-12-20T03:49:02.230Z,33.53
2022-12-20T03:51:31.610Z,34.53
2022-12-20T03:53:59.547Z,33.77
2022-12-20T03:56:27.451Z,34.43
2022-12-20T03:58:55.384Z,33.07
2022-12-20T04:01:25.300Z,33.23
2022-12-20T04:03:53.760Z,33.13
2022-12-20T04:06:22.420Z,35.13
2022-12-20T04:08:51.875Z,31.83
2022-12-20T04:11:19.843Z,32.30
2022-12-20T04:13:49.349Z,32.83
2022-12-20T04:16:19.529Z,33.80
2022-12-20T04:18:47.676Z,34.20
2022-12-20T04:21:16.361Z,31.37
2022-12-20T04:23:44.849Z,33.27
2022-12-20T04:26:14.444Z,34.13
2022-12-20T04:28:42.497Z,32.60
2022-12-20T04:31:11.097Z,31.60
2022-12-20T04:33:39.214Z,34.43
2022-12-20T04:36:07.736Z,32.77
2022-12-20T04:38:35.725Z,36.83
2022-12-20T04:41:03.738Z,33.73
2022-12-20T04:43:33.163Z,33.33
2022-12-20T04:46:01.221Z,33.67
2022-12-20T04:51:18.037Z,37.43
2022-12-20T04:53:48.296Z,35.00
2022-12-20T04:56:18.539Z,32.80
2022-12-20T04:58:49.422Z,39.37
2022-12-20T05:01:17.606Z,39.93
2022-12-20T05:03:46.875Z,35.60
2022-12-20T05:06:15.248Z,31.57
2022-12-20T05:08:43.639Z,34.50
2022-12-20T05:11:11.651Z,37.93
2022-12-20T05:13:39.581Z,33.77
2022-12-20T05:16:09.566Z,34.23
2022-12-20T05:18:40.537Z,33.90
2022-12-20T05:21:30.200Z,35.73
2022-12-20T05:24:15.443Z,31.60
2022-12-20T05:26:43.407Z,32.57
2022-12-20T05:29:11.360Z,33.17
2022-12-20T05:31:40.706Z,35.00
2022-12-20T05:34:08.679Z,31.80
2022-12-20T05:36:36.643Z,30.77
2022-12-20T05:39:04.939Z,34.40
2022-12-20T05:41:33.276Z,35.27
2022-12-20T05:44:01.964Z,35.40
2022-12-20T05:46:29.940Z,32.77
2022-12-20T05:48:59.293Z,32.57
2022-12-20T05:51:27.236Z,34.40
2022-12-20T05:53:55.171Z,34.60
2022-12-20T05:56:23.112Z,36.17
2022-12-20T05:58:51.037Z,36.17
2022-12-20T06:01:19.026Z,34.87
2022-12-20T06:03:47.333Z,36.80
2022-12-20T06:06:16.888Z,35.27
2022-12-20T06:08:44.919Z,32.23
2022-12-20T06:11:12.991Z,30.43
2022-12-20T06:13:43.895Z,32.20
2022-12-20T06:16:11.859Z,31.73
2022-12-20T06:18:39.889Z,34.03
2022-12-20T06:21:07.827Z,31.60
2022-12-20T06:23:37.132Z,34.90
2022-12-20T06:26:05.547Z,33.10
2022-12-20T06:28:33.449Z,32.87
2022-12-20T06:31:01.343Z,34.27
2022-12-20T06:33:29.348Z,32.93
2022-12-20T06:35:57.272Z,36.17
2022-12-20T06:38:25.234Z,36.67
2022-12-20T06:40:54.690Z,33.90
2022-12-20T06:43:22.746Z,34.13
2022-12-20T06:45:50.795Z,33.70
2022-12-20T06:48:21.328Z,32.23
2022-12-20T06:50:55.447Z,33.47
2022-12-20T06:53:24.375Z,33.73
2022-12-20T06:55:52.468Z,32.23
2022-12-20T06:58:22.020Z,32.10
2022-12-20T07:00:50.607Z,34.00
2022-12-20T07:03:18.787Z,33.03
2022-12-20T07:05:52.408Z,35.10
2022-12-20T07:08:20.389Z,36.27
2022-12-20T07:10:48.920Z,32.93
2022-12-20T07:13:17.744Z,37.70
2022-12-20T07:15:47.063Z,34.87
2022-12-20T07:18:15.179Z,34.77
2022-12-20T07:20:43.143Z,32.80
2022-12-20T07:23:11.476Z,36.27
2022-12-20T07:25:39.424Z,34.50
2022-12-20T07:28:07.540Z,32.90
2022-12-20T07:30:35.486Z,32.03
2022-12-20T07:33:04.868Z,32.77
2022-12-20T07:35:32.877Z,33.37
2022-12-20T07:38:00.807Z,32.60
2022-12-20T07:40:28.846Z,30.67
2022-12-20T07:42:56.906Z,33.23
2022-12-20T07:45:24.889Z,35.43
2022-12-20T07:47:52.793Z,31.47
2022-12-20T07:50:22.246Z,31.07
2022-12-20T07:52:51.946Z,38.00
2022-12-20T07:55:20.709Z,33.00
2022-12-20T07:57:52.826Z,36.97
2022-12-20T08:00:21.198Z,33.27
2022-12-20T08:02:55.897Z,34.83
2022-12-20T08:05:26.132Z,34.40
2022-12-20T08:07:59.493Z,35.57
2022-12-20T08:10:29.021Z,34.80
2022-12-20T08:12:57.646Z,34.70
2022-12-20T08:15:25.840Z,35.03
2022-12-20T08:17:53.724Z,31.93
2022-12-20T08:20:21.704Z,33.43
2022-12-20T08:22:51.039Z,29.83
2022-12-20T08:25:19.084Z,34.57
2022-12-20T08:27:47.004Z,33.83
2022-12-20T08:30:15.730Z,34.03
2022-12-20T08:32:43.730Z,32.63
2022-12-20T08:35:13.121Z,33.43
2022-12-20T08:37:41.967Z,30.73
2022-12-20T08:40:12.548Z,32.13
2022-12-20T08:42:40.603Z,31.13
2022-12-20T08:45:08.982Z,34.03
2022-12-20T08:47:36.906Z,31.40
2022-12-20T08:50:05.553Z,34.80
2022-12-20T08:52:33.759Z,33.87
2022-12-20T08:55:02.334Z,38.60
2022-12-20T08:57:32.520Z,34.43
2022-12-20T09:00:00.459Z,34.27
2022-12-20T09:02:28.474Z,37.33
2022-12-20T09:04:56.979Z,37.13
2022-12-20T09:07:24.867Z,37.03
2022-12-20T09:09:52.787Z,33.30
2022-12-20T09:12:20.768Z,34.63
2022-12-20T09:14:50.086Z,35.67
2022-12-20T09:17:18.008Z,32.50
2022-12-20T09:19:45.909Z,34.87
2022-12-20T09:22:13.880Z,38.70
2022-12-20T09:24:41.809Z,41.30
2022-12-20T09:27:09.751Z,43.50
2022-12-20T09:29:37.631Z,52.67
2022-12-20T09:32:07.539Z,39.30
2022-12-20T09:34:35.500Z,42.43
2022-12-20T09:37:03.526Z,34.03
2022-12-20T09:39:31.437Z,38.17
2022-12-20T09:42:00.100Z,39.60
2022-12-20T09:44:31.901Z,36.73
2022-12-20T09:47:10.044Z,33.73
2022-12-20T09:49:45.424Z,34.60
2022-12-20T09:52:36.158Z,32.90
2022-12-20T09:55:19.519Z,30.73
2022-12-20T09:58:04.045Z,30.57
2022-12-20T10:00:37.106Z,31.23
2022-12-20T10:03:10.476Z,32.80
2022-12-20T10:05:51.362Z,32.43
2022-12-20T10:08:34.497Z,32.80
2022-12-20T10:11:10.845Z,32.20
2022-12-20T10:13:55.360Z,35.53
2022-12-20T10:16:37.975Z,33.00
2022-12-20T10:19:22.764Z,32.57
2022-12-20T10:21:57.127Z,32.17
2022-12-20T10:24:30.435Z,31.40
2022-12-20T10:27:06.430Z,33.53
2022-12-20T10:29:34.420Z,32.63
2022-12-20T10:32:03.390Z,30.60
2022-12-20T10:34:37.324Z,36.97
2022-12-20T10:37:16.132Z,34.20
2022-12-20T10:39:45.973Z,31.97
2022-12-20T10:42:39.205Z,30.50
2022-12-20T10:45:35.693Z,29.23
2022-12-20T10:48:06.746Z,30.10
2022-12-20T10:50:35.118Z,29.60
2022-12-20T10:53:24.248Z,27.30
2022-12-20T10:55:54.389Z,29.43
2022-12-20T10:58:35.314Z,33.33
2022-12-20T11:01:13.552Z,28.20
2022-12-20T11:03:56.817Z,25.90
2022-12-20T11:06:27.715Z,26.33
2022-12-20T11:09:22.120Z,26.80
2022-12-20T11:12:00.452Z,25.63
2022-12-20T11:14:36.492Z,26.97
2022-12-20T11:17:19.988Z,25.63
2022-12-20T11:20:05.523Z,25.57
2022-12-20T11:22:51.356Z,22.60
2022-12-20T11:25:40.611Z,25.07
2022-12-20T11:28:36.412Z,24.90
2022-12-20T11:31:16.886Z,25.37
2022-12-20T11:33:59.461Z,23.90
2022-12-20T11:36:38.013Z,25.10
2022-12-20T11:39:16.311Z,28.77
2022-12-20T11:41:57.465Z,25.20
2022-12-20T11:44:41.743Z,28.40
2022-12-20T11:47:40.509Z,27.43
2022-12-20T11:50:32.684Z,24.57
2022-12-20T11:53:04.050Z,26.33
2022-12-20T11:55:36.132Z,27.77
2022-12-20T11:58:21.349Z,22.70
2022-12-20T12:00:57.322Z,27.67
2022-12-20T12:03:34.664Z,24.63
2022-12-20T12:06:08.535Z,28.50
2022-12-20T12:08:45.409Z,25.07
2022-12-20T12:11:55.660Z,31.17
2022-12-20T12:14:08.302Z,30.33
2022-12-20T12:16:38.792Z,26.17
2022-12-20T12:19:11.661Z,30.97
2022-12-20T12:21:44.451Z,28.97
2022-12-20T12:24:20.866Z,35.17
2022-12-20T12:26:49.086Z,33.07
2022-12-20T12:29:20.548Z,37.67
2022-12-20T12:31:55.250Z,36.40
2022-12-20T12:34:40.263Z,39.03
2022-12-20T12:37:33.725Z,35.50
2022-12-20T12:40:26.588Z,41.23
2022-12-20T12:43:12.743Z,32.70
2022-12-20T12:45:47.493Z,33.20
2022-12-20T12:48:20.733Z,38.93
2022-12-20T12:50:51.081Z,33.00
2022-12-20T12:53:23.505Z,31.10
2022-12-20T12:56:02.326Z,34.30
2022-12-20T12:58:46.427Z,34.90
2022-12-20T13:01:51.033Z,33.33
2022-12-20T13:04:26.048Z,32.63
2022-12-20T13:07:00.080Z,35.50
2022-12-20T13:09:39.887Z,34.03
2022-12-20T13:12:50.790Z,32.27
2022-12-20T13:15:50.326Z,35.73
2022-12-20T13:18:27.572Z,34.83
2022-12-20T13:21:35.327Z,33.40
2022-12-20T13:24:41.022Z,39.10
2022-12-20T13:27:36.747Z,37.73
2022-12-20T13:30:29.086Z,35.37
2022-12-20T13:33:20.522Z,36.23
2022-12-20T13:36:03.762Z,37.87
2022-12-20T13:39:23.041Z,39.67
2022-12-20T13:42:07.409Z,36.13
2022-12-20T13:44:43.714Z,32.97
2022-12-20T13:47:31.092Z,34.80
2022-12-20T13:50:02.937Z,31.90
2022-12-20T13:52:34.107Z,34.53
2022-12-20T13:55:06.501Z,34.47
2022-12-20T13:57:42.097Z,33.67
2022-12-20T14:00:17.130Z,35.57
2022-12-20T14:02:46.411Z,31.37
2022-12-20T14:05:19.345Z,34.20
2022-12-20T14:07:56.244Z,36.37
2022-12-20T14:10:25.745Z,35.03
2022-12-20T14:12:54.755Z,31.37
2022-12-20T14:15:25.252Z,33.37
2022-12-20T14:17:54.068Z,32.33
2022-12-20T14:20:26.027Z,38.43
2022-12-20T14:23:05.029Z,36.13
2022-12-20T14:25:39.162Z,38.10
2022-12-20T14:28:21.437Z,37.07
2022-12-20T14:30:53.023Z,35.93
2022-12-20T14:33:24.157Z,33.10
2022-12-20T14:35:52.293Z,32.70
2022-12-20T14:38:25.672Z,34.83
2022-12-20T14:40:54.476Z,33.67
2022-12-20T14:43:29.291Z,36.17
2022-12-20T14:46:17.930Z,35.87
2022-12-20T14:48:47.194Z,36.07
2022-12-20T14:51:20.867Z,36.37
2022-12-20T14:53:53.414Z,32.60
2022-12-20T14:56:31.370Z,35.50
2022-12-20T14:59:14.885Z,40.33
2022-12-20T15:01:44.698Z,35.70
2022-12-20T15:04:25.743Z,41.27
2022-12-20T15:06:53.987Z,43.27
2022-12-20T15:09:23.409Z,38.03
2022-12-20T15:11:52.854Z,36.33
2022-12-20T15:14:40.877Z,35.27
2022-12-20T15:17:12.415Z,39.73
2022-12-20T15:19:42.779Z,37.93
2022-12-20T15:22:16.399Z,36.70
2022-12-20T15:24:48.214Z,38.10
2022-12-20T15:27:19.090Z,38.03
2022-12-20T15:29:49.779Z,37.23
2022-12-20T15:32:29.758Z,42.90
2022-12-20T15:34:57.937Z,37.47
2022-12-20T15:37:25.823Z,40.13
2022-12-20T15:39:55.513Z,38.53
2022-12-20T15:42:24.890Z,39.33
2022-12-20T15:44:56.091Z,40.97
2022-12-20T15:47:23.994Z,37.03
2022-12-20T15:49:51.933Z,40.47
2022-12-20T15:52:22.096Z,46.13
2022-12-20T15:54:52.674Z,48.27
2022-12-20T15:57:21.984Z,48.83
2022-12-20T16:00:01.186Z,49.07
2022-12-20T16:02:31.773Z,43.37
2022-12-20T16:05:00.366Z,44.10
2022-12-20T16:07:28.577Z,41.83
2022-12-20T16:09:56.521Z,44.47
2022-12-20T16:12:29.302Z,45.23
2022-12-20T16:14:57.311Z,44.60
2022-12-20T16:17:25.521Z,44.30
2022-12-20T16:19:53.515Z,44.33
2022-12-20T16:22:23.347Z,43.97
2022-12-20T16:24:51.805Z,40.23
2022-12-20T16:27:20.416Z,45.23
2022-12-20T16:29:49.837Z,40.70
2022-12-20T16:32:20.204Z,40.37
2022-12-20T16:34:49.766Z,41.57
2022-12-20T16:37:17.830Z,40.80
2022-12-20T16:39:45.829Z,40.77
2022-12-20T16:42:15.184Z,40.40
2022-12-20T16:44:45.151Z,39.00
2022-12-20T16:47:15.429Z,42.27
2022-12-20T16:49:51.751Z,40.83
2022-12-20T16:52:22.416Z,40.13
2022-12-20T16:54:50.960Z,39.27
2022-12-20T16:57:18.878Z,39.13
2022-12-20T16:59:46.866Z,38.10
2022-12-20T17:02:24.793Z,42.00
2022-12-20T17:04:53.001Z,41.90
2022-12-20T17:07:20.909Z,39.23
2022-12-20T17:12:34.382Z,42.63
2022-12-20T17:15:03.081Z,40.60
2022-12-20T17:17:32.379Z,41.10
2022-12-20T17:20:00.357Z,42.17
2022-12-20T17:25:21.047Z,39.10
2022-12-20T17:27:48.998Z,42.37
2022-12-20T17:30:17.290Z,41.63
2022-12-20T17:32:46.914Z,41.57
2022-12-20T17:35:26.945Z,39.80
2022-12-20T17:37:56.331Z,41.40
2022-12-20T17:40:26.228Z,40.60
2022-12-20T17:42:54.424Z,41.90
2022-12-20T17:45:29.077Z,40.60
2022-12-20T17:48:00.069Z,41.10
2022-12-20T17:50:28.694Z,41.93
2022-12-20T17:52:56.811Z,38.57
2022-12-20T17:55:27.172Z,42.10
2022-12-20T17:57:56.569Z,42.63
2022-12-20T18:00:31.829Z,40.97
2022-12-20T18:03:05.942Z,63.23
2022-12-20T18:05:34.104Z,41.90
2022-12-20T18:08:02.092Z,43.50
2022-12-20T18:10:30.037Z,41.40
2022-12-20T18:12:57.959Z,35.97
2022-12-20T18:15:25.869Z,37.33
2022-12-20T18:17:53.754Z,44.53
2022-12-20T18:20:23.287Z,46.07
2022-12-20T18:22:51.209Z,42.33
2022-12-20T18:25:19.205Z,39.27
2022-12-20T18:27:47.107Z,41.20
2022-12-20T18:30:15.478Z,41.10
2022-12-20T18:32:43.509Z,44.07
2022-12-20T18:35:11.671Z,47.53
2022-12-20T18:37:41.053Z,47.93
2022-12-20T18:40:10.476Z,39.80
2022-12-20T18:42:38.390Z,40.17
2022-12-20T18:45:07.172Z,41.87
2022-12-20T18:47:35.594Z,42.13
2022-12-20T18:50:03.514Z,45.40
2022-12-20T18:52:32.449Z,45.90
2022-12-20T18:55:01.777Z,42.07
2022-12-20T18:57:29.684Z,39.80
2022-12-20T18:59:57.708Z,41.57
2022-12-20T19:02:25.808Z,38.63
2022-12-20T19:04:53.896Z,39.20
2022-12-20T19:07:21.984Z,40.73
2022-12-20T19:09:49.909Z,41.43
2022-12-20T19:12:19.308Z,40.67
2022-12-20T19:14:47.572Z,40.73
2022-12-20T19:17:15.531Z,36.50
2022-12-20T19:19:43.522Z,37.37
2022-12-20T19:22:11.479Z,38.80
2022-12-20T19:24:39.429Z,45.53
2022-12-20T19:27:09.470Z,38.87
2022-12-20T19:29:38.841Z,38.77
2022-12-20T19:32:06.815Z,38.43
2022-12-20T19:34:34.756Z,39.23
2022-12-20T19:37:02.709Z,39.37
2022-12-20T19:39:30.702Z,40.77
2022-12-20T19:42:23.119Z,42.07
2022-12-20T19:44:48.938Z,37.73
2022-12-20T19:47:16.859Z,42.87
2022-12-20T19:49:45.202Z,39.30
2022-12-20T19:52:13.224Z,38.33
2022-12-20T19:54:42.919Z,40.20
2022-12-20T19:57:11.111Z,39.53
2022-12-20T19:59:39.185Z,41.23
2022-12-20T20:02:08.711Z,39.83
2022-12-20T20:04:36.713Z,39.53
2022-12-20T20:07:05.517Z,38.43
2022-12-20T20:09:33.419Z,40.57
2022-12-20T20:12:01.554Z,41.97
2022-12-20T20:14:29.514Z,38.37
2022-12-20T20:16:57.428Z,41.43
2022-12-20T20:19:26.789Z,41.03
2022-12-20T20:21:54.808Z,39.67
2022-12-20T20:24:22.698Z,38.53
2022-12-20T20:26:50.654Z,39.20
2022-12-20T20:29:18.598Z,43.70
2022-12-20T20:31:46.848Z,41.33
2022-12-20T20:34:14.863Z,52.03
2022-12-20T20:36:44.215Z,41.50
2022-12-20T20:39:12.181Z,36.93
2022-12-20T20:41:40.890Z,36.67
2022-12-20T20:44:08.959Z,38.43
2022-12-20T20:46:36.928Z,42.00
2022-12-20T20:49:05.929Z,40.03
2022-12-20T20:51:33.901Z,39.40
2022-12-20T20:54:03.209Z,42.57
2022-12-20T20:56:31.504Z,42.23
2022-12-20T20:59:05.893Z,38.20
2022-12-20T21:01:35.446Z,40.30
2022-12-20T21:04:04.140Z,36.37
2022-12-20T21:06:39.893Z,36.43
2022-12-20T21:09:11.479Z,36.40
2022-12-20T21:11:39.663Z,35.00
2022-12-20T21:14:07.706Z,38.17
2022-12-20T21:16:36.978Z,35.53
2022-12-20T21:19:05.691Z,35.90
2022-12-20T21:21:34.144Z,36.40
2022-12-20T21:24:02.208Z,37.30
2022-12-20T21:26:31.698Z,39.03
2022-12-20T21:29:00.125Z,40.00
2022-12-20T21:31:28.667Z,39.77
2022-12-20T21:33:57.305Z,40.60
2022-12-20T21:36:26.083Z,38.23
2022-12-20T21:38:57.019Z,42.40
2022-12-20T21:41:26.218Z,38.10
2022-12-20T21:43:58.772Z,37.33
2022-12-20T21:46:28.868Z,34.07
2022-12-20T21:48:57.142Z,35.63
2022-12-20T21:51:26.942Z,35.10
2022-12-20T21:53:57.267Z,35.70
2022-12-20T21:56:27.289Z,36.33
2022-12-20T21:58:57.534Z,34.37
2022-12-20T22:01:27.813Z,35.63
2022-12-20T22:03:59.692Z,38.50
2022-12-20T22:06:28.310Z,38.30
2022-12-20T22:08:58.045Z,36.00
2022-12-20T22:11:26.454Z,34.53
2022-12-20T22:13:55.711Z,35.73
2022-12-20T22:16:26.488Z,39.47
2022-12-20T22:18:56.033Z,38.27
2022-12-20T22:21:26.130Z,37.10
2022-12-20T22:23:55.846Z,36.60
2022-12-20T22:26:26.349Z,34.77
2022-12-20T22:28:56.351Z,37.03
2022-12-20T22:31:26.549Z,37.67
2022-12-20T22:33:55.095Z,37.87
2022-12-20T22:36:23.944Z,36.20
2022-12-20T22:38:52.592Z,37.30
2022-12-20T22:41:22.581Z,38.27
2022-12-20T22:43:50.771Z,36.80
2022-12-20T22:46:19.333Z,36.30
2022-12-20T22:48:48.740Z,34.60
2022-12-20T22:51:18.777Z,38.27
2022-12-20T22:53:48.576Z,33.40
2022-12-20T22:56:17.884Z,40.43
2022-12-20T22:58:45.998Z,38.50
2022-12-20T23:01:16.399Z,35.13
2022-12-20T23:03:44.798Z,37.57
2022-12-20T23:06:16.760Z,40.53
2022-12-20T23:08:45.377Z,40.93
2022-12-20T23:11:36.802Z,38.20
2022-12-20T23:14:22.850Z,38.90
2022-12-20T23:16:52.093Z,35.70
2022-12-20T23:19:20.134Z,35.50
2022-12-20T23:22:07.035Z,38.77
2022-12-20T23:24:34.983Z,36.80
2022-12-20T23:27:03.423Z,39.47
2022-12-20T23:29:31.787Z,35.83
2022-12-20T23:31:59.858Z,38.87
2022-12-20T23:34:28.237Z,36.17
2022-12-20T23:36:57.847Z,35.50
2022-12-20T23:39:25.815Z,37.63
2022-12-20T23:41:53.739Z,38.30
2022-12-20T23:44:21.893Z,36.37
2022-12-20T23:46:49.811Z,37.27
2022-12-20T23:49:17.980Z,38.33
2022-12-20T23:51:46.650Z,37.30
2022-12-20T23:54:19.538Z,41.23
2022-12-20T23:56:47.857Z,39.43
2022-12-20T23:59:15.934Z,38.13
